Terminal Aerodrome Forecast
Issued by NWS Quad Cities IA IL

Current Version | Previous Version | Text Only | Print | Product List | Glossary On
Versions: 1 2 3 4 5 6 7 8 9 10 11 12 13 14 15 16 17 18 19 20 21 22 23 24 25 26 27
000
FTUS43 KDVN 312200 AAC
TAFMLI
TAF AMD
KMLI 312245Z 3123/0118 21005KT 4SM -RA BR OVC006
      TEMPO 3123/0101 2SM -RA BR
     FM010100 17004KT 3SM -RASN BR OVC005
     FM010400 08010KT 1/2SM SN FG OVC003
     FM011400 06016G25KT 1SM -SN OVC007=

USA.gov is the U.S. government's official web portal to all federal, state and local government web resources and services.